sensor_id;sensor_type;location;lat;lon;timestamp;P1;durP1;ratioP1;P2;durP2;ratioP2
31091;SDS011;67728;53.122;12.776;2023-03-01T00:01:11;151.70;;;40.30;;
31091;SDS011;67728;53.122;12.776;2023-03-01T00:02:44;155.33;;;40.87;;
31091;SDS011;67728;53.122;12.776;2023-03-01T00:04:15;157.50;;;41.23;;
31091;SDS011;67728;53.122;12.776;2023-03-01T00:05:47;162.10;;;41.77;;
31091;SDS011;67728;53.122;12.776;2023-03-01T00:07:18;165.20;;;41.97;;
31091;SDS011;67728;53.122;12.776;2023-03-01T00:08:49;164.73;;;41.87;;
31091;SDS011;67728;53.122;12.776;2023-03-01T00:10:21;173.63;;;42.80;;
31091;SDS011;67728;53.122;12.776;2023-03-01T00:11:53;178.10;;;43.27;;
31091;SDS011;67728;53.122;12.776;2023-03-01T00:13:25;183.13;;;43.80;;
31091;SDS011;67728;53.122;12.776;2023-03-01T00:14:56;214.33;;;46.23;;
31091;SDS011;67728;53.122;12.776;2023-03-01T00:16:29;164.03;;;41.83;;
31091;SDS011;67728;53.122;12.776;2023-03-01T00:18:04;191.63;;;44.37;;
31091;SDS011;67728;53.122;12.776;2023-03-01T00:19:35;162.20;;;41.53;;
31091;SDS011;67728;53.122;12.776;2023-03-01T00:21:07;164.83;;;41.77;;
31091;SDS011;67728;53.122;12.776;2023-03-01T00:22:37;187.27;;;44.07;;
31091;SDS011;67728;53.122;12.776;2023-03-01T00:24:09;176.70;;;43.00;;
31091;SDS011;67728;53.122;12.776;2023-03-01T00:25:41;183.23;;;43.67;;
31091;SDS011;67728;53.122;12.776;2023-03-01T00:27:13;178.53;;;43.37;;
31091;SDS011;67728;53.122;12.776;2023-03-01T00:28:44;173.33;;;42.73;;
31091;SDS011;67728;53.122;12.776;2023-03-01T00:30:16;161.90;;;41.30;;
31091;SDS011;67728;53.122;12.776;2023-03-01T00:31:48;161.50;;;41.63;;
31091;SDS011;67728;53.122;12.776;2023-03-01T00:33:21;149.10;;;40.40;;
31091;SDS011;67728;53.122;12.776;2023-03-01T00:34:53;157.13;;;41.50;;
31091;SDS011;67728;53.122;12.776;2023-03-01T00:36:26;166.20;;;42.03;;
31091;SDS011;67728;53.122;12.776;2023-03-01T00:37:59;170.67;;;42.53;;
31091;SDS011;67728;53.122;12.776;2023-03-01T00:39:30;157.13;;;40.90;;
31091;SDS011;67728;53.122;12.776;2023-03-01T00:41:03;150.37;;;40.50;;
31091;SDS011;67728;53.122;12.776;2023-03-01T00:42:35;157.30;;;41.00;;
31091;SDS011;67728;53.122;12.776;2023-03-01T00:44:06;163.33;;;41.53;;
31091;SDS011;67728;53.122;12.776;2023-03-01T00:45:37;164.20;;;41.80;;
31091;SDS011;67728;53.122;12.776;2023-03-01T00:47:09;164.23;;;41.63;;
31091;SDS011;67728;53.122;12.776;2023-03-01T00:48:42;166.87;;;42.03;;
31091;SDS011;67728;53.122;12.776;2023-03-01T00:50:14;162.77;;;41.57;;
31091;SDS011;67728;53.122;12.776;2023-03-01T00:51:46;165.00;;;41.80;;
31091;SDS011;67728;53.122;12.776;2023-03-01T00:53:16;155.77;;;40.83;;
31091;SDS011;67728;53.122;12.776;2023-03-01T00:54:48;154.27;;;40.80;;
31091;SDS011;67728;53.122;12.776;2023-03-01T00:56:22;148.90;;;40.47;;
31091;SDS011;67728;53.122;12.776;2023-03-01T00:57:54;147.30;;;40.20;;
31091;SDS011;67728;53.122;12.776;2023-03-01T00:59:26;136.83;;;38.83;;
31091;SDS011;67728;53.122;12.776;2023-03-01T01:00:58;158.37;;;41.13;;
31091;SDS011;67728;53.122;12.776;2023-03-01T01:02:28;160.27;;;41.13;;
31091;SDS011;67728;53.122;12.776;2023-03-01T01:04:03;159.20;;;41.07;;
31091;SDS011;67728;53.122;12.776;2023-03-01T01:05:36;158.77;;;41.00;;
31091;SDS011;67728;53.122;12.776;2023-03-01T01:07:08;153.67;;;40.57;;
31091;SDS011;67728;53.122;12.776;2023-03-01T01:08:41;160.67;;;41.40;;
31091;SDS011;67728;53.122;12.776;2023-03-01T01:10:13;158.67;;;40.93;;
31091;SDS011;67728;53.122;12.776;2023-03-01T01:11:47;158.10;;;40.97;;
31091;SDS011;67728;53.122;12.776;2023-03-01T01:13:20;154.93;;;40.30;;
31091;SDS011;67728;53.122;12.776;2023-03-01T01:14:52;154.13;;;40.50;;
31091;SDS011;67728;53.122;12.776;2023-03-01T01:16:24;153.03;;;40.20;;
31091;SDS011;67728;53.122;12.776;2023-03-01T01:17:56;157.00;;;40.70;;
31091;SDS011;67728;53.122;12.776;2023-03-01T01:19:29;156.87;;;40.57;;
31091;SDS011;67728;53.122;12.776;2023-03-01T01:21:04;156.67;;;40.87;;
31091;SDS011;67728;53.122;12.776;2023-03-01T01:22:36;151.90;;;40.37;;
31091;SDS011;67728;53.122;12.776;2023-03-01T01:24:07;155.80;;;40.70;;
31091;SDS011;67728;53.122;12.776;2023-03-01T01:25:39;159.47;;;41.13;;
31091;SDS011;67728;53.122;12.776;2023-03-01T01:27:11;155.27;;;40.63;;
31091;SDS011;67728;53.122;12.776;2023-03-01T01:28:43;155.13;;;40.73;;
31091;SDS011;67728;53.122;12.776;2023-03-01T01:30:14;152.40;;;40.30;;
31091;SDS011;67728;53.122;12.776;2023-03-01T01:31:46;155.90;;;40.97;;
31091;SDS011;67728;53.122;12.776;2023-03-01T01:33:18;150.27;;;40.27;;
31091;SDS011;67728;53.122;12.776;2023-03-01T01:34:51;146.50;;;39.70;;
31091;SDS011;67728;53.122;12.776;2023-03-01T01:36:22;141.57;;;39.37;;
31091;SDS011;67728;53.122;12.776;2023-03-01T01:37:54;135.13;;;38.90;;
31091;SDS011;67728;53.122;12.776;2023-03-01T01:39:25;128.63;;;38.13;;
31091;SDS011;67728;53.122;12.776;2023-03-01T01:40:56;128.20;;;37.87;;
31091;SDS011;67728;53.122;12.776;2023-03-01T01:42:27;124.73;;;37.47;;
31091;SDS011;67728;53.122;12.776;2023-03-01T01:44:10;122.67;;;37.17;;
31091;SDS011;67728;53.122;12.776;2023-03-01T01:45:44;125.40;;;37.57;;
31091;SDS011;67728;53.122;12.776;2023-03-01T01:47:16;124.90;;;37.43;;
31091;SDS011;67728;53.122;12.776;2023-03-01T01:48:52;130.10;;;37.97;;
31091;SDS011;67728;53.122;12.776;2023-03-01T01:50:28;143.60;;;39.33;;
31091;SDS011;67728;53.122;12.776;2023-03-01T01:52:09;150.77;;;40.00;;
31091;SDS011;67728;53.122;12.776;2023-03-01T01:53:42;147.70;;;39.60;;
31091;SDS011;67728;53.122;12.776;2023-03-01T01:55:16;140.60;;;39.00;;
31091;SDS011;67728;53.122;12.776;2023-03-01T01:56:52;138.53;;;38.70;;
31091;SDS011;67728;53.122;12.776;2023-03-01T01:58:28;131.17;;;37.93;;
31091;SDS011;67728;53.122;12.776;2023-03-01T02:00:03;124.83;;;37.30;;
31091;SDS011;67728;53.122;12.776;2023-03-01T02:01:38;134.53;;;38.40;;
31091;SDS011;67728;53.122;12.776;2023-03-01T02:03:10;130.73;;;37.97;;
31091;SDS011;67728;53.122;12.776;2023-03-01T02:04:43;147.17;;;39.60;;
31091;SDS011;67728;53.122;12.776;2023-03-01T02:06:17;154.37;;;40.40;;
31091;SDS011;67728;53.122;12.776;2023-03-01T02:07:51;153.90;;;40.30;;
31091;SDS011;67728;53.122;12.776;2023-03-01T02:09:24;153.93;;;40.27;;
31091;SDS011;67728;53.122;12.776;2023-03-01T02:10:56;152.17;;;40.27;;
31091;SDS011;67728;53.122;12.776;2023-03-01T02:12:29;136.27;;;38.47;;
31091;SDS011;67728;53.122;12.776;2023-03-01T02:14:02;120.43;;;36.73;;
31091;SDS011;67728;53.122;12.776;2023-03-01T02:15:34;112.87;;;36.07;;
31091;SDS011;67728;53.122;12.776;2023-03-01T02:17:07;107.77;;;35.27;;
31091;SDS011;67728;53.122;12.776;2023-03-01T02:18:38;125.57;;;37.20;;
31091;SDS011;67728;53.122;12.776;2023-03-01T02:20:14;129.63;;;37.93;;
31091;SDS011;67728;53.122;12.776;2023-03-01T02:21:56;123.17;;;36.93;;
31091;SDS011;67728;53.122;12.776;2023-03-01T02:23:36;133.50;;;37.90;;
31091;SDS011;67728;53.122;12.776;2023-03-01T02:25:09;141.57;;;38.97;;
31091;SDS011;67728;53.122;12.776;2023-03-01T02:26:50;144.13;;;39.30;;
31091;SDS011;67728;53.122;12.776;2023-03-01T02:28:32;140.43;;;38.67;;
31091;SDS011;67728;53.122;12.776;2023-03-01T02:30:07;149.87;;;39.70;;
31091;SDS011;67728;53.122;12.776;2023-03-01T02:31:38;143.17;;;39.17;;
31091;SDS011;67728;53.122;12.776;2023-03-01T02:33:12;138.73;;;38.67;;
31091;SDS011;67728;53.122;12.776;2023-03-01T02:34:43;139.63;;;39.00;;
31091;SDS011;67728;53.122;12.776;2023-03-01T02:36:15;140.27;;;39.30;;
31091;SDS011;67728;53.122;12.776;2023-03-01T02:37:49;141.43;;;38.77;;
31091;SDS011;67728;53.122;12.776;2023-03-01T02:39:22;152.13;;;39.93;;
31091;SDS011;67728;53.122;12.776;2023-03-01T02:40:56;151.67;;;39.83;;
31091;SDS011;67728;53.122;12.776;2023-03-01T02:42:30;151.13;;;39.80;;
31091;SDS011;67728;53.122;12.776;2023-03-01T02:44:08;148.20;;;39.53;;
31091;SDS011;67728;53.122;12.776;2023-03-01T02:45:43;146.80;;;39.43;;
31091;SDS011;67728;53.122;12.776;2023-03-01T02:47:19;140.00;;;38.73;;
31091;SDS011;67728;53.122;12.776;2023-03-01T02:48:51;145.90;;;39.40;;
31091;SDS011;67728;53.122;12.776;2023-03-01T02:50:31;144.43;;;39.43;;
31091;SDS011;67728;53.122;12.776;2023-03-01T02:52:27;138.27;;;38.30;;
31091;SDS011;67728;53.122;12.776;2023-03-01T02:54:10;138.87;;;38.50;;
31091;SDS011;67728;53.122;12.776;2023-03-01T02:55:48;127.93;;;37.50;;
31091;SDS011;67728;53.122;12.776;2023-03-01T02:57:20;117.70;;;36.30;;
31091;SDS011;67728;53.122;12.776;2023-03-01T02:58:53;111.37;;;35.80;;
31091;SDS011;67728;53.122;12.776;2023-03-01T03:00:26;100.47;;;34.43;;
31091;SDS011;67728;53.122;12.776;2023-03-01T03:02:03;105.63;;;34.77;;
31091;SDS011;67728;53.122;12.776;2023-03-01T03:03:33;118.67;;;36.27;;
31091;SDS011;67728;53.122;12.776;2023-03-01T03:05:07;129.20;;;37.47;;
31091;SDS011;67728;53.122;12.776;2023-03-01T03:06:40;144.10;;;39.60;;
31091;SDS011;67728;53.122;12.776;2023-03-01T03:08:11;135.40;;;38.30;;
31091;SDS011;67728;53.122;12.776;2023-03-01T03:09:44;140.57;;;39.07;;
31091;SDS011;67728;53.122;12.776;2023-03-01T03:11:15;139.57;;;38.73;;
31091;SDS011;67728;53.122;12.776;2023-03-01T03:12:49;148.73;;;39.70;;
31091;SDS011;67728;53.122;12.776;2023-03-01T03:14:20;147.03;;;39.20;;
31091;SDS011;67728;53.122;12.776;2023-03-01T03:15:53;145.77;;;39.33;;
31091;SDS011;67728;53.122;12.776;2023-03-01T03:17:25;146.50;;;39.57;;
31091;SDS011;67728;53.122;12.776;2023-03-01T03:18:56;144.73;;;39.37;;
31091;SDS011;67728;53.122;12.776;2023-03-01T03:20:35;140.67;;;38.87;;
31091;SDS011;67728;53.122;12.776;2023-03-01T03:22:06;142.67;;;39.20;;
31091;SDS011;67728;53.122;12.776;2023-03-01T03:23:39;145.37;;;39.57;;
31091;SDS011;67728;53.122;12.776;2023-03-01T03:25:10;144.97;;;39.53;;
31091;SDS011;67728;53.122;12.776;2023-03-01T03:26:41;144.43;;;39.17;;
31091;SDS011;67728;53.122;12.776;2023-03-01T03:28:13;143.47;;;39.17;;
31091;SDS011;67728;53.122;12.776;2023-03-01T03:29:43;145.27;;;39.33;;
31091;SDS011;67728;53.122;12.776;2023-03-01T03:31:16;149.73;;;39.80;;
31091;SDS011;67728;53.122;12.776;2023-03-01T03:32:48;150.30;;;40.27;;
31091;SDS011;67728;53.122;12.776;2023-03-01T03:34:22;142.20;;;39.07;;
31091;SDS011;67728;53.122;12.776;2023-03-01T03:35:53;146.60;;;39.80;;
31091;SDS011;67728;53.122;12.776;2023-03-01T03:37:25;144.13;;;39.60;;
31091;SDS011;67728;53.122;12.776;2023-03-01T03:39:14;137.27;;;38.30;;
31091;SDS011;67728;53.122;12.776;2023-03-01T03:40:46;140.50;;;38.97;;
31091;SDS011;67728;53.122;12.776;2023-03-01T03:42:18;139.67;;;38.93;;
31091;SDS011;67728;53.122;12.776;2023-03-01T03:43:50;136.20;;;38.57;;
31091;SDS011;67728;53.122;12.776;2023-03-01T03:45:21;148.87;;;40.00;;
31091;SDS011;67728;53.122;12.776;2023-03-01T03:46:54;145.20;;;39.50;;
31091;SDS011;67728;53.122;12.776;2023-03-01T03:48:26;142.03;;;39.47;;
31091;SDS011;67728;53.122;12.776;2023-03-01T03:49:57;146.13;;;39.70;;
31091;SDS011;67728;53.122;12.776;2023-03-01T03:51:28;152.83;;;40.50;;
31091;SDS011;67728;53.122;12.776;2023-03-01T03:53:00;143.57;;;39.40;;
31091;SDS011;67728;53.122;12.776;2023-03-01T03:54:32;142.77;;;39.43;;
31091;SDS011;67728;53.122;12.776;2023-03-01T03:56:04;147.70;;;40.07;;
31091;SDS011;67728;53.122;12.776;2023-03-01T03:57:36;137.13;;;38.80;;
31091;SDS011;67728;53.122;12.776;2023-03-01T03:59:07;147.73;;;39.93;;
31091;SDS011;67728;53.122;12.776;2023-03-01T04:00:43;144.30;;;39.33;;
31091;SDS011;67728;53.122;12.776;2023-03-01T04:02:16;145.10;;;39.53;;
31091;SDS011;67728;53.122;12.776;2023-03-01T04:03:52;144.00;;;39.27;;
31091;SDS011;67728;53.122;12.776;2023-03-01T04:05:24;136.03;;;38.67;;
31091;SDS011;67728;53.122;12.776;2023-03-01T04:06:55;146.53;;;40.03;;
31091;SDS011;67728;53.122;12.776;2023-03-01T04:08:27;141.80;;;39.50;;
31091;SDS011;67728;53.122;12.776;2023-03-01T04:09:59;136.57;;;38.83;;
31091;SDS011;67728;53.122;12.776;2023-03-01T04:11:29;136.70;;;38.57;;
31091;SDS011;67728;53.122;12.776;2023-03-01T04:13:01;129.57;;;37.67;;
31091;SDS011;67728;53.122;12.776;2023-03-01T04:14:32;131.50;;;38.20;;
31091;SDS011;67728;53.122;12.776;2023-03-01T04:16:04;121.33;;;37.00;;
31091;SDS011;67728;53.122;12.776;2023-03-01T04:17:37;118.77;;;36.87;;
31091;SDS011;67728;53.122;12.776;2023-03-01T04:19:09;112.73;;;35.97;;
31091;SDS011;67728;53.122;12.776;2023-03-01T04:20:41;127.23;;;37.57;;
31091;SDS011;67728;53.122;12.776;2023-03-01T04:22:12;132.23;;;38.00;;
31091;SDS011;67728;53.122;12.776;2023-03-01T04:23:47;128.43;;;37.50;;
31091;SDS011;67728;53.122;12.776;2023-03-01T04:25:22;131.23;;;38.17;;
31091;SDS011;67728;53.122;12.776;2023-03-01T04:26:53;127.40;;;37.80;;
31091;SDS011;67728;53.122;12.776;2023-03-01T04:28:26;118.57;;;36.73;;
31091;SDS011;67728;53.122;12.776;2023-03-01T04:30:00;108.37;;;35.47;;
31091;SDS011;67728;53.122;12.776;2023-03-01T04:31:31;107.53;;;35.60;;
31091;SDS011;67728;53.122;12.776;2023-03-01T04:33:04;105.43;;;35.00;;
31091;SDS011;67728;53.122;12.776;2023-03-01T04:34:36;111.60;;;35.87;;
31091;SDS011;67728;53.122;12.776;2023-03-01T04:36:08;123.50;;;37.40;;
31091;SDS011;67728;53.122;12.776;2023-03-01T04:37:40;130.23;;;37.87;;
31091;SDS011;67728;53.122;12.776;2023-03-01T04:39:11;130.63;;;37.87;;
31091;SDS011;67728;53.122;12.776;2023-03-01T04:40:43;132.70;;;38.37;;
31091;SDS011;67728;53.122;12.776;2023-03-01T04:42:15;130.47;;;38.10;;
31091;SDS011;67728;53.122;12.776;2023-03-01T04:43:46;135.97;;;38.43;;
31091;SDS011;67728;53.122;12.776;2023-03-01T04:45:18;139.53;;;38.87;;
31091;SDS011;67728;53.122;12.776;2023-03-01T04:46:50;137.03;;;38.70;;
31091;SDS011;67728;53.122;12.776;2023-03-01T04:48:23;137.57;;;38.60;;
31091;SDS011;67728;53.122;12.776;2023-03-01T04:49:55;136.70;;;38.83;;
31091;SDS011;67728;53.122;12.776;2023-03-01T04:51:26;129.10;;;37.70;;
31091;SDS011;67728;53.122;12.776;2023-03-01T04:52:58;138.80;;;38.73;;
31091;SDS011;67728;53.122;12.776;2023-03-01T04:54:29;138.80;;;38.83;;
31091;SDS011;67728;53.122;12.776;2023-03-01T04:56:02;141.73;;;39.17;;
31091;SDS011;67728;53.122;12.776;2023-03-01T04:57:34;150.23;;;40.10;;
31091;SDS011;67728;53.122;12.776;2023-03-01T04:59:06;145.43;;;39.80;;
31091;SDS011;67728;53.122;12.776;2023-03-01T05:00:38;136.53;;;38.67;;
31091;SDS011;67728;53.122;12.776;2023-03-01T05:02:10;121.17;;;36.93;;
31091;SDS011;67728;53.122;12.776;2023-03-01T05:03:44;112.00;;;35.73;;
31091;SDS011;67728;53.122;12.776;2023-03-01T05:05:16;104.70;;;34.97;;
31091;SDS011;67728;53.122;12.776;2023-03-01T05:06:48;109.70;;;35.67;;
31091;SDS011;67728;53.122;12.776;2023-03-01T05:08:19;100.47;;;34.73;;
31091;SDS011;67728;53.122;12.776;2023-03-01T05:09:51;99.40;;;34.50;;
31091;SDS011;67728;53.122;12.776;2023-03-01T05:11:22;117.67;;;36.67;;
31091;SDS011;67728;53.122;12.776;2023-03-01T05:12:54;131.63;;;38.27;;
31091;SDS011;67728;53.122;12.776;2023-03-01T05:14:27;134.90;;;38.43;;
31091;SDS011;67728;53.122;12.776;2023-03-01T05:15:59;131.20;;;38.20;;
31091;SDS011;67728;53.122;12.776;2023-03-01T05:17:32;122.37;;;36.87;;
31091;SDS011;67728;53.122;12.776;2023-03-01T05:19:05;125.87;;;37.13;;
31091;SDS011;67728;53.122;12.776;2023-03-01T05:20:41;123.30;;;36.97;;
31091;SDS011;67728;53.122;12.776;2023-03-01T05:22:14;122.60;;;36.90;;
31091;SDS011;67728;53.122;12.776;2023-03-01T05:23:46;134.70;;;38.43;;
31091;SDS011;67728;53.122;12.776;2023-03-01T05:25:18;134.97;;;38.77;;
31091;SDS011;67728;53.122;12.776;2023-03-01T05:26:51;135.17;;;38.67;;
31091;SDS011;67728;53.122;12.776;2023-03-01T05:28:21;131.30;;;38.23;;
31091;SDS011;67728;53.122;12.776;2023-03-01T05:29:53;129.87;;;38.00;;
31091;SDS011;67728;53.122;12.776;2023-03-01T05:31:24;127.87;;;37.50;;
31091;SDS011;67728;53.122;12.776;2023-03-01T05:32:55;132.03;;;38.50;;
31091;SDS011;67728;53.122;12.776;2023-03-01T05:34:29;124.70;;;36.93;;
31091;SDS011;67728;53.122;12.776;2023-03-01T05:36:02;120.40;;;36.43;;
31091;SDS011;67728;53.122;12.776;2023-03-01T05:37:34;112.70;;;35.50;;
31091;SDS011;67728;53.122;12.776;2023-03-01T05:39:05;115.70;;;36.00;;
31091;SDS011;67728;53.122;12.776;2023-03-01T05:40:37;127.67;;;37.50;;
31091;SDS011;67728;53.122;12.776;2023-03-01T05:42:10;125.13;;;37.03;;
31091;SDS011;67728;53.122;12.776;2023-03-01T05:43:42;135.97;;;38.00;;
31091;SDS011;67728;53.122;12.776;2023-03-01T05:45:15;137.13;;;38.33;;
31091;SDS011;67728;53.122;12.776;2023-03-01T05:46:47;139.43;;;38.80;;
31091;SDS011;67728;53.122;12.776;2023-03-01T05:48:19;134.87;;;38.43;;
31091;SDS011;67728;53.122;12.776;2023-03-01T05:49:52;135.50;;;38.70;;
31091;SDS011;67728;53.122;12.776;2023-03-01T05:51:23;139.53;;;39.07;;
31091;SDS011;67728;53.122;12.776;2023-03-01T05:52:56;140.17;;;39.23;;
31091;SDS011;67728;53.122;12.776;2023-03-01T05:54:29;121.33;;;36.57;;
31091;SDS011;67728;53.122;12.776;2023-03-01T05:56:02;136.53;;;38.53;;
31091;SDS011;67728;53.122;12.776;2023-03-01T05:57:34;130.70;;;37.67;;
31091;SDS011;67728;53.122;12.776;2023-03-01T05:59:06;133.23;;;38.07;;
31091;SDS011;67728;53.122;12.776;2023-03-01T06:00:37;131.57;;;38.13;;
31091;SDS011;67728;53.122;12.776;2023-03-01T06:02:09;147.97;;;40.20;;
31091;SDS011;67728;53.122;12.776;2023-03-01T06:03:41;137.27;;;38.60;;
31091;SDS011;67728;53.122;12.776;2023-03-01T06:05:14;179.87;;;44.40;;
31091;SDS011;67728;53.122;12.776;2023-03-01T06:06:46;144.00;;;39.73;;
31091;SDS011;67728;53.122;12.776;2023-03-01T06:08:18;140.07;;;39.43;;
31091;SDS011;67728;53.122;12.776;2023-03-01T06:09:50;132.63;;;38.47;;
31091;SDS011;67728;53.122;12.776;2023-03-01T06:11:21;128.30;;;37.97;;
31091;SDS011;67728;53.122;12.776;2023-03-01T06:12:53;136.77;;;39.00;;
31091;SDS011;67728;53.122;12.776;2023-03-01T06:14:25;137.73;;;39.37;;
31091;SDS011;67728;53.122;12.776;2023-03-01T06:15:56;138.90;;;39.00;;
31091;SDS011;67728;53.122;12.776;2023-03-01T06:17:29;133.27;;;38.57;;
31091;SDS011;67728;53.122;12.776;2023-03-01T06:19:01;136.00;;;38.90;;
31091;SDS011;67728;53.122;12.776;2023-03-01T06:20:34;138.27;;;39.20;;
31091;SDS011;67728;53.122;12.776;2023-03-01T06:22:06;141.57;;;39.50;;
31091;SDS011;67728;53.122;12.776;2023-03-01T06:23:37;128.63;;;38.30;;
31091;SDS011;67728;53.122;12.776;2023-03-01T06:25:09;129.07;;;38.10;;
31091;SDS011;67728;53.122;12.776;2023-03-01T06:26:42;145.17;;;40.23;;
31091;SDS011;67728;53.122;12.776;2023-03-01T06:28:14;146.57;;;40.10;;
31091;SDS011;67728;53.122;12.776;2023-03-01T06:29:45;137.63;;;38.80;;
31091;SDS011;67728;53.122;12.776;2023-03-01T06:31:17;141.47;;;39.50;;
31091;SDS011;67728;53.122;12.776;2023-03-01T06:32:48;132.97;;;38.57;;
31091;SDS011;67728;53.122;12.776;2023-03-01T06:34:20;132.37;;;38.50;;
31091;SDS011;67728;53.122;12.776;2023-03-01T06:35:55;135.00;;;38.83;;
31091;SDS011;67728;53.122;12.776;2023-03-01T06:37:27;128.50;;;37.53;;
31091;SDS011;67728;53.122;12.776;2023-03-01T06:38:58;130.07;;;38.00;;
31091;SDS011;67728;53.122;12.776;2023-03-01T06:40:30;138.50;;;39.17;;
31091;SDS011;67728;53.122;12.776;2023-03-01T06:42:02;143.60;;;39.73;;
31091;SDS011;67728;53.122;12.776;2023-03-01T06:43:34;143.20;;;39.70;;
31091;SDS011;67728;53.122;12.776;2023-03-01T06:45:07;140.87;;;39.60;;
31091;SDS011;67728;53.122;12.776;2023-03-01T06:46:39;142.47;;;39.57;;
31091;SDS011;67728;53.122;12.776;2023-03-01T06:48:11;134.57;;;38.83;;
31091;SDS011;67728;53.122;12.776;2023-03-01T06:49:43;140.47;;;39.60;;
31091;SDS011;67728;53.122;12.776;2023-03-01T06:51:15;142.07;;;39.53;;
31091;SDS011;67728;53.122;12.776;2023-03-01T06:52:46;147.03;;;40.33;;
31091;SDS011;67728;53.122;12.776;2023-03-01T06:54:18;154.93;;;41.07;;
31091;SDS011;67728;53.122;12.776;2023-03-01T06:55:53;151.00;;;40.97;;
31091;SDS011;67728;53.122;12.776;2023-03-01T06:57:26;160.80;;;41.63;;
31091;SDS011;67728;53.122;12.776;2023-03-01T06:58:58;167.50;;;42.27;;
31091;SDS011;67728;53.122;12.776;2023-03-01T07:00:30;169.00;;;42.33;;
31091;SDS011;67728;53.122;12.776;2023-03-01T07:02:02;174.37;;;43.27;;
31091;SDS011;67728;53.122;12.776;2023-03-01T07:03:33;178.13;;;43.53;;
31091;SDS011;67728;53.122;12.776;2023-03-01T07:05:05;177.73;;;43.27;;
31091;SDS011;67728;53.122;12.776;2023-03-01T07:06:39;178.90;;;43.77;;
31091;SDS011;67728;53.122;12.776;2023-03-01T07:08:11;181.17;;;43.90;;
31091;SDS011;67728;53.122;12.776;2023-03-01T07:09:42;173.77;;;43.33;;
31091;SDS011;67728;53.122;12.776;2023-03-01T07:11:14;172.00;;;43.20;;
31091;SDS011;67728;53.122;12.776;2023-03-01T07:12:46;177.80;;;43.97;;
31091;SDS011;67728;53.122;12.776;2023-03-01T07:14:18;183.60;;;45.10;;
31091;SDS011;67728;53.122;12.776;2023-03-01T07:15:50;175.93;;;43.57;;
31091;SDS011;67728;53.122;12.776;2023-03-01T07:17:22;177.63;;;44.27;;
31091;SDS011;67728;53.122;12.776;2023-03-01T07:18:53;180.80;;;44.60;;
31091;SDS011;67728;53.122;12.776;2023-03-01T07:20:25;183.60;;;44.90;;
31091;SDS011;67728;53.122;12.776;2023-03-01T07:21:58;183.07;;;45.00;;
31091;SDS011;67728;53.122;12.776;2023-03-01T07:23:30;184.53;;;44.90;;
31091;SDS011;67728;53.122;12.776;2023-03-01T07:25:01;180.17;;;44.50;;
31091;SDS011;67728;53.122;12.776;2023-03-01T07:26:33;180.93;;;44.53;;
31091;SDS011;67728;53.122;12.776;2023-03-01T07:28:05;178.40;;;44.53;;
31091;SDS011;67728;53.122;12.776;2023-03-01T07:29:36;217.33;;;47.40;;
31091;SDS011;67728;53.122;12.776;2023-03-01T07:31:08;196.53;;;46.50;;
31091;SDS011;67728;53.122;12.776;2023-03-01T07:32:39;177.17;;;44.40;;
31091;SDS011;67728;53.122;12.776;2023-03-01T07:34:11;186.40;;;45.47;;
31091;SDS011;67728;53.122;12.776;2023-03-01T07:35:44;178.17;;;44.77;;
31091;SDS011;67728;53.122;12.776;2023-03-01T07:37:18;175.97;;;44.30;;
31091;SDS011;67728;53.122;12.776;2023-03-01T07:38:50;222.67;;;47.70;;
31091;SDS011;67728;53.122;12.776;2023-03-01T07:40:22;200.93;;;46.73;;
31091;SDS011;67728;53.122;12.776;2023-03-01T07:41:53;223.03;;;48.47;;
31091;SDS011;67728;53.122;12.776;2023-03-01T07:43:25;216.33;;;47.77;;
31091;SDS011;67728;53.122;12.776;2023-03-01T07:44:57;212.37;;;48.00;;
31091;SDS011;67728;53.122;12.776;2023-03-01T07:46:29;193.00;;;46.27;;
31091;SDS011;67728;53.122;12.776;2023-03-01T07:48:01;193.87;;;46.20;;
31091;SDS011;67728;53.122;12.776;2023-03-01T07:49:34;182.70;;;45.07;;
31091;SDS011;67728;53.122;12.776;2023-03-01T07:51:06;179.37;;;44.93;;
31091;SDS011;67728;53.122;12.776;2023-03-01T07:52:39;211.17;;;47.77;;
31091;SDS011;67728;53.122;12.776;2023-03-01T07:54:11;221.57;;;48.80;;
31091;SDS011;67728;53.122;12.776;2023-03-01T07:55:42;225.67;;;48.43;;
31091;SDS011;67728;53.122;12.776;2023-03-01T07:57:14;219.83;;;48.07;;
31091;SDS011;67728;53.122;12.776;2023-03-01T07:58:46;217.60;;;48.20;;
31091;SDS011;67728;53.122;12.776;2023-03-01T08:00:17;222.50;;;48.97;;
31091;SDS011;67728;53.122;12.776;2023-03-01T08:01:49;212.00;;;47.97;;
31091;SDS011;67728;53.122;12.776;2023-03-01T08:03:21;201.37;;;47.20;;
31091;SDS011;67728;53.122;12.776;2023-03-01T08:04:53;206.40;;;47.60;;
31091;SDS011;67728;53.122;12.776;2023-03-01T08:06:24;197.63;;;47.07;;
31091;SDS011;67728;53.122;12.776;2023-03-01T08:07:58;209.83;;;48.10;;
31091;SDS011;67728;53.122;12.776;2023-03-01T08:09:30;192.90;;;46.50;;
31091;SDS011;67728;53.122;12.776;2023-03-01T08:11:02;210.13;;;48.03;;
31091;SDS011;67728;53.122;12.776;2023-03-01T08:12:36;209.70;;;48.07;;
31091;SDS011;67728;53.122;12.776;2023-03-01T08:14:07;194.60;;;46.83;;
31091;SDS011;67728;53.122;12.776;2023-03-01T08:15:40;196.97;;;46.90;;
31091;SDS011;67728;53.122;12.776;2023-03-01T08:17:13;199.53;;;47.23;;
31091;SDS011;67728;53.122;12.776;2023-03-01T08:18:44;197.30;;;47.47;;
31091;SDS011;67728;53.122;12.776;2023-03-01T08:20:16;202.63;;;48.70;;
31091;SDS011;67728;53.122;12.776;2023-03-01T08:21:48;200.87;;;48.47;;
31091;SDS011;67728;53.122;12.776;2023-03-01T08:23:21;228.67;;;49.80;;
31091;SDS011;67728;53.122;12.776;2023-03-01T08:24:53;203.20;;;50.17;;
31091;SDS011;67728;53.122;12.776;2023-03-01T08:26:25;210.00;;;51.23;;
31091;SDS011;67728;53.122;12.776;2023-03-01T08:27:57;195.93;;;48.70;;
31091;SDS011;67728;53.122;12.776;2023-03-01T08:29:30;196.87;;;50.57;;
31091;SDS011;67728;53.122;12.776;2023-03-01T08:31:02;197.33;;;47.70;;
31091;SDS011;67728;53.122;12.776;2023-03-01T08:32:37;225.67;;;51.93;;
31091;SDS011;67728;53.122;12.776;2023-03-01T08:34:12;219.57;;;49.67;;
31091;SDS011;67728;53.122;12.776;2023-03-01T08:35:46;219.43;;;50.00;;
31091;SDS011;67728;53.122;12.776;2023-03-01T08:37:17;213.38;;;49.35;;
31091;SDS011;67728;53.122;12.776;2023-03-01T08:38:50;221.27;;;50.30;;
31091;SDS011;67728;53.122;12.776;2023-03-01T08:40:22;216.15;;;50.13;;
31091;SDS011;67728;53.122;12.776;2023-03-01T08:41:54;216.80;;;50.22;;
31091;SDS011;67728;53.122;12.776;2023-03-01T08:43:25;228.25;;;51.08;;
31091;SDS011;67728;53.122;12.776;2023-03-01T08:44:57;237.43;;;51.85;;
31091;SDS011;67728;53.122;12.776;2023-03-01T08:46:29;225.25;;;51.20;;